Eelde, Nederland

3:07 PM CET op 06 maart 2015 (GMT +0100)
Eelde | Change Station
CLOSE
Current Station
Luchthaven
Location: Eelde,
Geometrische hoogte: 13 ft
Nabije weerstations

Hoogte 13 ft 53.12 °N, 6.58 °E | Updated 12 minutes ago

Overcast
Geheel bewolkt
48 °F
Voelt als 48 °F
N
16
Wind Variabel Wind van ZW

Vandaag
Hoog -- | Laag -- °F
--% Kans op neerslag
Gisteren
Hoog -- | Laag -- °F
Precip. -- inches
7:10 AM 6:20 PM
Volle maan, 99% visible
Druk 30.48 inches
Zicht 6.2 mijlen
Wolken Gering 2900 ft
Geheel bewolkt 3400 ft
Dauwpunt 37 °F
Vochtigheid 66%
Neerslag 0.00 inches
Dikte sneeuw Niet beschikbaar.
UV 1 van de 12
Pollen Niet beschikbaar.
Luchtkwaliteit Niet beschikbaar.
Flu Activity Niet beschikbaar.
METAR EHGG 061355Z AUTO 23014KT 9999 FEW029 OVC034 09/03 Q1032 NOSIG

More Conditions Fewer Conditions

Druk 30.48 inches
Zicht 6.2 mijlen
Wolken Gering 2900 ft
Geheel bewolkt 3400 ft
Dauwpunt 37 °F
Vochtigheid 66%
Neerslag 0.00 inches
Dikte sneeuw Niet beschikbaar.
UV 1 van de 12
Pollen Niet beschikbaar.
Luchtkwaliteit Niet beschikbaar.
Flu Activity Niet beschikbaar.
METAR EHGG 061355Z AUTO 23014KT 9999 FEW029 OVC034 09/03 Q1032 NOSIG

More Conditions Fewer Conditions

10-Day Weather Forecast

Almanac

Astronomie

Mar. 06, 2015 Opkomst Ondergang
Werkelijke tijd
Burgerlijke schemering
Nautische schemering
Astronomische schemering
Maan
Golflengte van het zichtbare licht
Daglengte
Tomorrow will be .
, % of the Moon is Illuminated

Extremen vandaag

Country Highs Country Lows

Community

WunderPhotos

Upload Photos

1,803,274 foto’s ge-upload!

WunderBlogs® & News

Nearby

Luchtkwaliteit

  Luchtkwaliteit LK-index Verontreinigende stof
Not available.

Dikte sneeuw

Station Depth Geometrische hoogte

Aardbevingen

Stad Distance Mag. Time & Date
Minimum magnitude displayed is 2.5.

Watertemperatuur langs de kust

Plaats Temperatuur

Nabije weerstations